ADDS METAR Data INFO
IDs: Format: Raw Decoded Include TAF

Data at: 1751 UTC 21 Oct 2017

KSDM 211653Z 00000KT 10SM CLR 19/12 A3004 RMK AO2 SLP171 T01940122
KSDM 211553Z 17003KT 10SM CLR 17/11 A3004 RMK AO2 SLP169 T01720106
KSDM 211453Z 12005KT 10SM CLR 14/11 A3002 RMK AO2 SLP163 T01440111 53012
KSDM 211353Z AUTO 12006KT 10SM CLR 11/09 A3000 RMK AO2 SLP158 T01110094
KSDM 211253Z AUTO 11004KT 10SM CLR 12/10 A2999 RMK AO2 SLP155 T01170100
KSDM 211153Z AUTO 12005KT 10SM CLR 12/09 A2998 RMK AO2 SLP152 T01170094 10172 20111 57001
KSDM 211053Z AUTO 13004KT 10SM CLR 14/11 A2998 RMK AO2 SLP151 T01390111
KSDM 210953Z AUTO 15005KT 10SM CLR 15/12 A2999 RMK AO2 SLP152 T01500117
KSDM 210853Z AUTO 15007KT 10SM FEW031 16/12 A2999 RMK AO2 SLP152 T01560117 58002
KSDM 210753Z AUTO 14006KT 10SM OVC032 17/12 A3000 RMK AO2 SLP154 T01670122 402110144
KSDM 210653Z AUTO 14008KT 10SM OVC041 17/13 A2999 RMK AO2 SLP151 T01670128
KSDM 210553Z AUTO 15006KT 10SM OVC033 17/13 A2999 RMK AO2 SLP153 T01670128 10194 20156 53010
KSDM 210453Z AUTO 21005KT 10SM FEW023 OVC033 16/13 A2998 RMK AO2 SLP148 T01610128
KSDM 210353Z AUTO 23006KT 10SM FEW029 16/13 A2997 RMK AO2 SLP145 T01610128
KSDM 210253Z 27008KT 10SM SCT019 BKN030 17/13 A2996 RMK AO2 SLP142 T01720133 51012
KSDM 210214Z COR 28008KT 10SM SCT019 BKN030 18/14 A2996 RMK AO2 T01780139
KSDM 210153Z COR 29005KT 10SM SCT023 BKN030 18/13 A2996 RMK AO2 SLP142 T01780133
KSDM 210053Z 28009KT 10SM SCT018 SCT024 18/13 A2994 RMK AO2 SLP134 T01780128
KSDM 202353Z AUTO 27008KT 10SM BKN020 BKN027 BKN046 19/15 A2993 RMK AO2 SLP130 60000 T01940150 10211 20189 58013
KSDM 202312Z 28009KT 10SM BKN020 BKN027 BKN046 19/14 A2995 RMK AO2 T01940144
KSDM 202311Z 28009KT 10SM SCT018 BKN048 19/14 A2995 RMK AO2 T01940144
KSDM 202253Z 29008KT 10SM BKN020 BKN027 BKN046 21/15 A2995 RMK AO2 RAE2158 SLP139 P0000 T02110150
KSDM 202159Z 28008KT 10SM BKN020 BKN027 BKN046 20/15 A2996 RMK AO2 RAE58 P0000 T02000150
KSDM 202153Z 29008KT 250V320 10SM -RA BKN020 BKN027 OVC046 20/15 A2996 RMK AO2 RAB45 SLP140 P0000 T02000150
KSDM 202053Z 25010KT 10SM SCT021 BKN026 OVC043 20/14 A2996 RMK AO2 SLP143 T02000144 56013
KSDM 202051Z 25011KT 10SM SCT019 BKN026 OVC043 20/14 A2996 RMK AO2
KSDM 202043Z 28009KT 10SM SCT021 OVC043 21/14 A2997 RMK AO2 T02060144
KSDM 202030Z 27011KT 10SM SCT020 BKN024 OVC042 21/14 A2997 RMK AO2 T02060144
KSDM 202020Z 26008KT 10SM FEW020 SCT026 OVC044 20/14 A2997 RMK AO2 T02000144
KSDM 201953Z 29009G16KT 10SM BKN020 OVC041 20/14 A2998 RMK AO2 SLP151 T02000139
KSDM 201853Z 28009KT 10SM BKN020 OVC029 19/14 A3000 RMK AO2 SLP156 T01940144
KSDM 201836Z 28011KT 10SM BKN020 BKN026 OVC042 19/14 A3000 RMK AO2 T01940144
KSDM 201753Z COR 29010KT 10SM SCT019 BKN024 BKN039 20/14 A3001 RMK AO2 SLP158 60000 T02000144 10206 20150 51006
KSDM 201734Z 27010KT 10SM FEW018 SCT024 BKN039 21/14 A3000 RMK AO2 T02060144
KSDM 201653Z 28011G15KT 10SM BKN017 BKN027 20/14 A3000 RMK AO2 SLP155 T02000144
KSDM 201553Z 29008KT 10SM FEW017 BKN024 BKN030 19/16 A2999 RMK AO2 SLP153 T01940156
KSDM 201514Z 30005KT 10SM BKN019 BKN024 BKN033 19/15 A2999 RMK AO2 T01890150
KSDM 201453Z 30005KT 10SM SCT023 SCT036 OVC050 19/15 A2999 RMK AO2 RAE1356 SLP151 P0000 60000 T01890150
KSDM 201353Z AUTO 22004KT 9SM -RA 18/17 A2997 RMK AO2 RAB31B40 SLP144 P0000 T01780172 $
KSDM 201331Z AUTO 21004KT 9SM -RA SCT015 BKN026 OVC035 18/17 A2996 RMK AO2 RAB31 P0000 T01780167
KSDM 201253Z AUTO 22004KT 10SM BKN048 16/16 A2996 RMK AO2 SLP141 T01560156
KSDM 201153Z AUTO 19005KT 10SM SCT026 17/16 A2994 RMK AO2 SLP135 T01720156 10183 20144 56002
KSDM 201139Z AUTO 17003KT 10SM BKN028 OVC035 18/16 A2994 RMK AO2 T01780161
KSDM 201108Z AUTO 19003KT 10SM FEW021 OVC037 18/16 A2994 RMK AO2 T01780161
KSDM 201053Z AUTO 00000KT 10SM SCT018 BKN024 OVC033 18/16 A2994 RMK AO2 SLP136 T01780161
KSDM 200953Z AUTO 13003KT 8SM BKN022 16/15 A2995 RMK AO2 SLP137 T01610150
KSDM 200949Z AUTO 00000KT 8SM BKN022 16/16 A2995 RMK AO2
KSDM 200942Z AUTO 00000KT 9SM SCT022 17/16 A2995 RMK AO2 T01720156
KSDM 200853Z AUTO 26005KT 8SM OVC015 18/16 A2996 RMK AO2 SLP140 T01780161 53003
KSDM 200845Z AUTO 26004KT 8SM OVC015 18/16 A2996 RMK AO2 T01780161
KSDM 200829Z AUTO 24004KT 9SM BKN013 17/15 A2995 RMK AO2 T01670150
KSDM 200753Z AUTO 00000KT 9SM CLR 15/14 A2993 RMK AO2 SLP132 T01500139 402440144
KSDM 200716Z AUTO 09004KT 9SM SCT014 16/15 A2993 RMK AO2 T01610150
KSDM 200653Z AUTO 00000KT 10SM OVC015 17/16 A2994 RMK AO2 SLP135 T01670156
KSDM 200625Z AUTO 00000KT 10SM BKN017 17/15 A2995 RMK AO2 T01720150
KSDM 200553Z AUTO 11004KT 10SM CLR 16/14 A2995 RMK AO2 SLP136 T01560139 10200 20150 51011